Weather observations for the past three days for
Los Alamos Airport
Imperial (Metric)
Date Time (mdt) Wind (mph) Vis. (mi.) Weather Sky Cond. Temperature (ºF) Relative Humidity Wind Chill (°F) Heat Index (°F) Pressure Precipitation (in)
Air Dwpt 6 hour altimeter (in) sea level (mb) 1 hr 3 hr 6 hr
Max. Min.
09 16:55 NW 15 G 25 10.00 A Few Clouds FEW130 75.6 11.7 8% 75 30.02 0.0
09 16:35 W 12 G 22 10.00 A Few Clouds FEW130 76.8 11.1 8% 76 30.02 0.0
09 16:15 NW 17 G 24 10.00 Fair CLR 77 11.1 8% 76 30.02 0.0
09 15:55 NW 14 G 24 10.00 A Few Clouds FEW130 77.4 11.5 8% 76 30.02 0.0
09 15:35 W 18 G 28 10.00 Partly Cloudy SCT130 77.4 11.3 8% 76 30.03 0.0
09 15:15 W 20 G 31 10.00 A Few Clouds FEW130 77.7 12.2 8% 76 30.04 0.0
09 14:55 SW 13 G 18 10.00 A Few Clouds FEW130 77.2 14 9% 76 30.05 0.0
09 14:35 W 13 G 28 10.00 Partly Cloudy SCT130 77 13.8 9% 76 30.05 0.0
09 14:15 W 9 G 17 10.00 Mostly Cloudy BKN130 74.7 14.4 10% 30.06 0.0
09 13:55 NW 14 G 23 10.00 Partly Cloudy SCT130 77 14.4 9% 76 30.07 0.0
09 13:35 W 14 G 25 10.00 Partly Cloudy SCT130 77.2 14.4 9% 76 30.07 0.0
09 13:15 NW 13 G 18 10.00 Partly Cloudy SCT130 78.1 15.1 9% 77 30.07 0.0
09 12:55 W 9 G 25 10.00 Partly Cloudy SCT130 76.6 14.5 9% 76 30.08 0.0
09 12:35 NW 12 G 25 10.00 Mostly Cloudy SCT130 BKN200 76.1 14 9% 75 30.09 0.0
09 12:15 NW 6 G 24 10.00 Overcast BKN130 OVC200 72.1 12.6 10% 30.09 0.0
09 11:55 NW 9 10.00 Overcast BKN130 OVC200 73.4 13.5 75.6 56.7 10% 30.1 0.0
09 11:35 W 10 10.00 Mostly Cloudy SCT130 BKN200 73.2 12.9 10% 30.11 0.0
09 11:15 Vrbl 6 8.00 A Few Clouds FEW130 74.1 17.4 12% 30.11 0.0
09 10:55 Vrbl 6 10.00 A Few Clouds FEW120 71.1 20.7 15% 30.11 0.0
09 10:35 NE 8 10.00 Fair CLR 70.5 21.7 16% 30.11 0.0
09 10:15 NE 8 10.00 Fair CLR 69.8 23 17% 30.11 0.0
09 09:55 E 6 10.00 Fair CLR 68.9 23 18% 30.11 0.0
09 09:35 SE 6 10.00 Fair CLR 65.8 22.5 19% 30.11 0.0
09 09:15 Calm 10.00 Fair CLR 63.1 22.3 21% 30.12 0.0
09 08:55 Vrbl 3 10.00 Fair CLR 60.1 22.6 24% 30.12 0.0
09 08:35 Vrbl 3 10.00 Fair CLR 60.3 23 24% 30.12 0.0
09 08:15 Calm 10.00 Fair CLR 59.5 23.2 25% 30.12 0.0
09 07:55 NE 3 10.00 Fair CLR 58.1 23.2 26% 30.12 0.0
09 07:35 Calm 10.00 Fair CLR 57.4 21.7 25% 30.11 0.0
09 07:15 Calm 10.00 Fair CLR 57.9 22.1 25% 30.11 0.0
09 06:55 Calm 10.00 Fair CLR 57.6 20.1 23% 30.1 0.0
09 06:35 Calm 10.00 Fair CLR 56.8 20.3 24% 30.09 0.0
09 06:15 Calm 10.00 Fair CLR 56.8 19.4 23% 30.09 0.0
09 05:55 Calm 10.00 Fair CLR 58.6 19.2 65.5 58.3 22% 30.08 0.0
09 05:35 Calm 10.00 Fair CLR 58.5 19.6 22% 30.07 0.0
09 05:15 Calm 10.00 Fair CLR 58.5 19.2 22% 30.07 0.0
09 04:55 Calm 10.00 Fair CLR 59.7 19.9 21% 30.07 0.0
09 04:35 Calm 10.00 Fair CLR 58.5 19.8 22% 30.07 0.0
09 04:15 Calm 10.00 Fair CLR 60.4 19.8 21% 30.07 0.0
09 03:55 Calm 10.00 Fair CLR 59 20.1 22% 30.07 0.0
09 03:35 W 5 10.00 Fair CLR 59.2 20.3 22% 30.06 0.0
09 03:15 W 10 10.00 Fair CLR 60.8 20.1 21% 30.06 0.0
09 02:55 W 10 10.00 Fair CLR 64 19.6 18% 30.06 0.0
09 02:35 W 12 10.00 Fair CLR 63.5 19.4 18% 30.06 0.0
09 01:55 W 13 10.00 Fair CLR 60.8 20.7 21% 30.06 0.0
09 01:35 W 14 10.00 Fair CLR 62.4 20.3 20% 30.06 0.0
09 01:15 W 13 10.00 Fair CLR 64.4 19 17% 30.06 0.0
09 00:55 W 14 10.00 Fair CLR 65.1 19.2 17% 30.07 0.0
09 00:35 W 16 10.00 Fair CLR 65.3 19.4 17% 30.06 0.0
09 00:15 W 17 10.00 Fair CLR 65.3 19.2 17% 30.06 0.0
08 23:55 W 17 10.00 Fair CLR 65.1 19.2 75.7 63.7 17% 30.06 0.0
08 23:35 W 14 10.00 Fair CLR 65.3 19.4 17% 30.07 0.0
08 23:15 NW 17 10.00 Fair CLR 64.9 19 17% 30.07 0.0
08 22:55 W 14 10.00 Fair CLR 64.6 19 17% 30.07 0.0
08 22:35 W 15 10.00 Fair CLR 64.8 19.2 17% 30.07 0.0
08 22:15 W 16 10.00 Fair CLR 65.1 19.2 17% 30.07 0.0
08 21:55 W 13 10.00 Fair CLR 63.7 19.4 18% 30.07 0.0
08 21:35 W 9 10.00 Fair CLR 64.6 18.7 17% 30.07 0.0
08 21:15 W 16 10.00 Fair CLR 65.7 18.3 16% 30.06 0.0
08 20:55 W 14 10.00 NULL NULL 66.2 18.3 16% 30.05 0.0
08 20:35 W 15 10.00 NULL NULL 67.1 17.8 15% 30.05 0.0
08 20:15 W 17 10.00 Fair CLR 67.8 17.6 14% 30.04 0.0
08 19:55 W 13 10.00 Fair CLR 69.3 16.2 13% 30.03 0.0
08 19:35 W 14 10.00 Fair CLR 70.5 15.4 12% 30.02 0.0
08 19:15 W 12 10.00 Fair CLR 72.3 14.7 11% 30.02 0.0
08 18:35 W 12 10.00 Fair CLR 73.2 15.6 11% 30.01 0.0
08 18:15 W 16 G 23 10.00 Partly Cloudy SCT120 74.7 16.7 11% 30.01 0.0
08 17:55 NW 8 10.00 Overcast OVC120 73.4 18 74.1 65.8 12% 30.01 0.0
08 17:35 E 8 10.00 Mostly Cloudy BKN120 73.8 18.3 12% 30.01 0.0
08 17:15 E 6 10.00 A Few Clouds FEW120 72.3 19.4 13% 30.01 0.0
08 16:55 E 6 10.00 Fair CLR 72.7 19.9 14% 30.01 0.0
08 16:15 S 9 10.00 Mostly Cloudy BKN120 73 19.2 13% 30.02 0.0
08 15:55 S 10 10.00 Overcast OVC120 73.2 19.8 13% 30.02 0.0
08 15:35 Vrbl 5 10.00 Overcast OVC120 73.4 19.6 13% 30.03 0.0
08 15:15 Vrbl 3 10.00 Partly Cloudy SCT120 71.2 19.6 14% 30.03 0.0
08 14:55 SE 8 10.00 Fair CLR 73.6 20.1 13% 30.04 0.0
08 14:35 Vrbl 6 10.00 Fair CLR 71.2 18.7 13% 30.05 0.0
08 14:15 Vrbl 3 10.00 Fair CLR 71.6 19.9 14% 30.06 0.0
08 13:55 Vrbl 5 10.00 Fair CLR 70.7 19.8 14% 30.06 0.0
08 13:35 SE 12 10.00 Fair CLR 71.2 19.9 14% 30.06 0.0
08 13:15 E 7 10.00 Fair CLR 70.5 19.6 14% 30.07 0.0
08 12:55 SE 10 10.00 Fair CLR 69.6 19.9 15% 30.08 0.0
08 12:35 Calm 10.00 Fair CLR 67.5 19 16% 30.09 0.0
08 12:15 NE 9 10.00 Fair CLR 68.5 20.1 16% 30.09 0.0
08 11:55 NE 9 10.00 Fair CLR 66.7 19.6 67.3 47.7 16% 30.1 0.0
08 11:35 E 12 10.00 Fair CLR 66.7 19.9 17% 30.11 0.0
08 11:15 Calm 9.00 Fair CLR 64.2 19.2 18% 30.12 0.0
08 10:55 Vrbl 7 10.00 Fair CLR 63.9 19.2 18% 30.12 0.0
08 10:35 Vrbl 5 10.00 Fair CLR 62.6 18.7 18% 30.13 0.0
08 10:15 Vrbl 3 10.00 Fair CLR 61.7 18.1 18% 30.13 0.0
08 09:55 Vrbl 7 10.00 Fair CLR 60.1 17.6 19% 30.13 0.0
08 09:35 Calm 10.00 Fair CLR 58.6 17.6 20% 30.13 0.0
08 09:15 Vrbl 3 10.00 Fair CLR 57.6 17.1 20% 30.13 0.0
08 08:55 Vrbl 5 10.00 Fair CLR 55 16.3 22% 30.13 0.0
08 08:35 Calm 10.00 Fair CLR 53.4 15.6 22% 30.13 0.0
08 08:15 NE 3 10.00 Fair CLR 52.3 15.3 23% 30.13 0.0
08 07:55 Calm 10.00 Fair CLR 50.9 13.3 22% 30.13 0.0
08 07:15 Calm 10.00 Fair CLR 48.9 12.4 23% 30.12 0.0
08 06:35 E 3 10.00 Fair CLR 48.2 12 23% 30.1 0.0
08 06:15 NW 5 10.00 Fair CLR 48.6 10.9 22% 47 30.09 0.0
08 05:55 Calm 10.00 Fair CLR 49.6 9.9 57.9 49.1 20% 30.09 0.0
08 05:35 N 3 10.00 Fair CLR 49.3 8.8 19% 30.09 0.0
08 05:15 NE 5 10.00 Fair CLR 50.7 7.7 17% 30.08 0.0
08 04:55 Calm 10.00 Fair CLR 51.4 7.3 17% 30.08 0.0
08 04:35 NE 3 10.00 Fair CLR 52.2 7.3 16% 30.08 0.0
08 04:15 SE 5 10.00 Fair CLR 51.1 7 17% 30.07 0.0
08 03:55 S 3 10.00 Fair CLR 51.4 6.1 16% 30.07 0.0
08 03:35 Calm 10.00 Fair CLR 52.2 5.5 15% 30.07 0.0
08 03:15 Calm 10.00 Fair CLR 52.9 5.9 15% 30.08 0.0
08 02:55 Calm 10.00 Fair CLR 53.2 5.5 14% 30.08 0.0
08 02:35 E 5 10.00 Fair CLR 54.1 4.6 13% 30.08 0.0
08 02:15 Calm 10.00 Fair CLR 54 4.1 13% 30.08 0.0
08 01:35 Vrbl 3 10.00 Fair CLR 54 5.2 14% 30.09 0.0
08 01:15 NE 7 10.00 Fair CLR 55.4 7.9 15% 30.09 0.0
08 00:55 NE 5 10.00 Fair CLR 55.8 7.3 14% 30.08 0.0
08 00:35 Vrbl 3 10.00 Fair CLR 56.8 6.4 13% 30.08 0.0
08 00:15 NW 9 10.00 Fair CLR 57.4 6.8 13% 30.07 0.0
07 23:55 W 20 10.00 Fair CLR 58.1 6.1 67.3 57.6 12% 30.07 0.0
07 23:35 W 16 10.00 Fair CLR 58.1 5.7 12% 30.07 0.0
07 23:15 W 14 G 26 10.00 Fair CLR 58.1 4.8 12% 30.08 0.0
07 22:55 W 17 G 28 10.00 Fair CLR 58.5 4.1 11% 30.08 0.0
07 22:35 W 17 G 26 10.00 Fair CLR 58.8 2.7 10% 30.08 0.0
07 22:15 W 13 G 25 10.00 Fair CLR 59.2 3.4 10% 30.08 0.0
07 21:55 W 16 10.00 Fair CLR 59 3.2 10% 30.08 0.0
07 21:35 W 16 10.00 Fair CLR 59.2 4.1 11% 30.07 0.0
07 20:55 W 12 10.00 Fair CLR 61 3.9 10% 30.06 0.0
07 20:35 W 13 10.00 Fair CLR 61.7 5.7 11% 30.05 0.0
07 20:15 NW 10 10.00 Fair CLR 62.2 7.3 11% 30.04 0.0
07 19:50 W 8 10.00 Fair CLR 63.9 3.7 9% 30.03 0.0
07 19:35 NE 3 10.00 Fair CLR 64.6 4.5 9% 30.03 0.0
07 19:15 Calm 10.00 Fair CLR 65.5 5.2 9% 30.02 0.0
07 18:55 E 7 10.00 Fair CLR 66.4 5.7 9% 30.02 0.0
07 18:35 Vrbl 6 10.00 Fair CLR 66.7 4.1 8% 30.02 0.0
07 18:15 Vrbl 3 10.00 Fair CLR 67.1 4.8 8% 30.03 0.0
07 17:55 S 9 10.00 Fair CLR 67.5 5 67.8 55.6 8% 30.03 0.0
07 17:35 SE 8 10.00 Fair CLR 67.5 6.6 9% 30.03 0.0
07 17:15 Vrbl 6 10.00 Fair CLR 66.9 10.6 11% 30.04 0.0
07 16:55 S 8 10.00 Fair CLR 66.4 14 13% 30.05 0.0
07 16:35 SE 10 G 17 10.00 Fair CLR 66.4 14.7 13% 30.05 0.0
07 16:15 S 9 G 18 10.00 Fair CLR 65.7 17.1 15% 30.05 0.0
07 15:55 SE 8 10.00 Fair CLR 65.3 20.1 18% 30.06 0.0
07 15:35 S 8 10.00 Fair CLR 65.8 20.8 18% 30.07 0.0
07 15:15 Vrbl 5 10.00 Fair CLR 64.6 21.4 19% 30.09 0.0
07 14:55 Vrbl 7 10.00 Fair CLR 64.8 19.4 17% 30.1 0.0
07 14:35 SW 9 10.00 Fair CLR 65.1 18.7 17% 30.1 0.0
07 14:15 Calm 10.00 Fair CLR 63 18.7 18% 30.11 0.0
07 13:35 Vrbl 6 10.00 Fair CLR 62.1 19.6 19% 30.13 0.0
07 13:15 Vrbl 3 10.00 Fair CLR 60.4 19 20% 30.14 0.0
07 12:55 NE 7 10.00 Fair CLR 59.7 19.8 21% 30.14 0.0
07 12:35 Calm 10.00 Fair CLR 57.7 19 22% 30.15 0.0
07 12:15 Vrbl 3 10.00 Fair CLR 57.4 19.6 23% 30.16 0.0
07 11:55 E 8 10.00 Fair CLR 55.2 19.2 55.8 34.5 24% 30.17 0.0
07 11:15 Vrbl 6 10.00 Fair CLR 52.5 19.2 27% 30.19 0.0
07 10:55 NE 12 10.00 Fair CLR 51.3 19.9 29% 30.19 0.0
07 10:35 NE 9 G 17 10.00 Fair CLR 50.7 19.4 29% 30.2 0.0
07 09:55 N 10 G 20 10.00 Fair CLR 47.8 18.3 31% 44 30.2 0.0
07 09:35 N 15 G 21 10.00 Fair CLR 48 19.4 32% 43 30.21 0.0
07 09:15 NE 12 G 18 10.00 Fair CLR 46.6 23.2 40% 42 30.21 0.0
07 08:55 N 14 10.00 Fair CLR 45.9 22.6 40% 40 30.21 0.0
07 08:35 N 14 10.00 Fair CLR 44.6 23.7 44% 39 30.21 0.0
07 08:15 NE 8 10.00 Fair CLR 42.6 25.5 51% 38 30.21 0.0
07 07:55 N 6 10.00 Fair CLR 39.2 26.2 60% 36 30.22 0.0
07 07:35 N 3 10.00 Fair CLR 38.1 25.7 61% 30.22 0.0
07 07:15 Calm 10.00 Fair CLR 36.5 24.4 62% 30.22 0.0
07 06:55 Calm 10.00 Fair CLR 35.4 24.6 65% 30.21 0.0
07 06:35 NE 3 10.00 Fair CLR 35.1 25 67% 30.21 0.0
07 06:15 E 3 10.00 Fair CLR 35.8 24.1 62% 30.21 0.0
07 05:55 N 5 10.00 Fair CLR 38.7 22.8 42.1 36 53% 36 30.21 0.0
07 05:35 N 7 10.00 Fair CLR 38.5 22.8 53% 34 30.2 0.0
07 04:55 NW 5 10.00 Fair CLR 37.2 24.8 61% 34 30.2 0.0
07 04:35 Calm 10.00 Fair CLR 36.1 25.7 66% 30.2 0.0
07 04:15 SE 3 10.00 Fair CLR 36.3 26.2 67% 30.21 0.0
07 03:55 Vrbl 7 10.00 Fair CLR 40.8 23 49% 37 30.2 0.0
07 03:35 N 10 10.00 Fair CLR 41.2 23 48% 36 30.2 0.0
07 03:15 N 10 10.00 Fair CLR 40.6 23.5 51% 35 30.19 0.0
07 02:55 N 12 10.00 Fair CLR 40.8 24.1 51% 35 30.19 0.0
07 02:35 N 10 10.00 Fair CLR 40.6 23.9 51% 35 30.19 0.0
07 02:15 Vrbl 7 10.00 Fair CLR 40.5 24.1 52% 36 30.19 0.0
07 01:55 N 10 10.00 Fair CLR 40.6 25.7 55% 35 30.19 0.0
07 01:35 N 8 10.00 Fair CLR 40.8 26.2 56% 36 30.19 0.0
07 01:15 N 8 10.00 Fair CLR 40.8 27.1 58% 36 30.19 0.0
07 00:55 N 6 10.00 Fair CLR 41.4 27.5 58% 38 30.19 0.0
07 00:35 N 5 10.00 Fair CLR 41.7 27.7 58% 39 30.18 0.0
07 00:15 N 9 10.00 Fair CLR 41.9 27.1 56% 37 30.18 0.0
06 23:55 N 12 10.00 Fair CLR 42.6 27 55.2 40.6 54% 37 30.17 0.0
06 23:35 Vrbl 7 10.00 Fair CLR 42.8 26.8 53% 39 30.17 0.0
06 23:15 Vrbl 6 10.00 Fair CLR 42.4 26.6 54% 39 30.17 0.0
06 22:55 NW 3 10.00 Fair CLR 41.5 28.6 60% 30.16 0.0
06 22:35 Calm 10.00 Fair CLR 41.9 29.5 61% 30.16 0.0
06 22:15 NW 5 10.00 Fair CLR 41.9 29.8 62% 40 30.15 0.0
06 21:55 Vrbl 6 10.00 Fair CLR 42.3 29.8 62% 39 30.14 0.0
06 21:35 N 7 10.00 Fair CLR 42.3 29.8 62% 38 30.14 0.0
06 21:15 Vrbl 5 10.00 Fair CLR 43 29.1 58% 41 30.12 0.0
06 20:55 N 9 10.00 Fair CLR 45.9 25.2 44% 42 30.11 0.0
06 20:35 W 8 10.00 Fair CLR 49.5 16.2 26% 47 30.09 0.0
06 20:15 W 7 10.00 Fair CLR 49.8 17.6 28% 47 30.08 0.0
06 19:55 NW 12 G 18 10.00 Fair CLR 50.9 18 27% 30.07 0.0
06 19:35 W 10 10.00 Fair CLR 51.3 21.9 32% 30.06 0.0
06 19:15 NW 12 G 20 10.00 Fair CLR 51.1 23 33% 30.05 0.0
06 18:55 W 17 G 29 10.00 Mostly Cloudy FEW060 BKN080 BKN095 51.6 23.4 33% 30.04 0.0
06 18:35 W 18 G 29 10.00 Mostly Cloudy BKN080 51.6 22.5 32% 30.06 0.0
06 18:15 W 23 G 30 10.00 Mostly Cloudy and Breezy BKN080 55 21.9 28% 30.04 0.0
06 17:35 NW 10 10.00 Mostly Cloudy BKN080 56.3 23.5 28% 30.02 0.0
06 17:15 NW 17 G 25 10.00 Partly Cloudy SCT080 SCT140 55.2 23.2 29% 30.01 0.0
Date Time (mdt) Wind (mph) Vis. (mi.) Weather Sky Cond. Air Dwpt Max. Min. Relative Humidity Wind Chill (°F) Heat Index (°F) altimeter (in) sea level (mb) 1 hr 3 hr 6 hr
6 hour
Temperature (ºF) Pressure Precipitation (in)